X Jazda Indywidualna Na Czas (ITT)

X Kolarska Jazd Indywidualna na czas ITT - 10kmPRO.xlsx

M-ce Numer Nazwisko Imię Płeć M-ce M/K Kat. M-ce kat. M/K Miejscowość Klub Wynik Prędkość km/h x
1 100 MAJEWSKI TOMASZ M 1 M 40-49 1 SEROCK RETRO STORK TEAM 0:13:03 45.98 [km/h]
2 39 ZIELIŃSKI PRZEMYSŁAW M 2 M 40-49 2 TCZEW GRUPA KOLARSKA GRYF TCZEW/BIKE U UP 0:13:32 44.33 [km/h]
3 10 NICIŃSKI SŁAWEK M 3 M 40-49 3 OTWOCK 0:13:58 42.96 [km/h]
4 21 BOJARCZAK DAWID M 4 M 18-29 1 ŁAPY BDC NOSIR NOWY DWÓR MAZOWIECKI 0:14:05 42.60 [km/h]
5 23 KOZAK KAROL M 5 M 18-29 2 ELBLĄG ETT ELBĄG TRIATHLON TEAM 0:14:08 42.45 [km/h]
6 29 JARKOWSKI TOMASZ M 6 M 18-29 3 OSTROŁĘKA KK24H 0:14:19 41.91 [km/h]
7 54 KACZYŃSKI ALEK M 7 M 30-39 1 ŁAPY NADAKTYWNI 0:14:20 41.86 [km/h]
8 9 KOBYLIŃSKI JAROSŁAW M 8 M 40-49 4 IPSWICH IPSWICH BC 0:14:27 41.52 [km/h]
9 20 SKIBKO TOMASZ M 9 M 30-39 2 BIAŁYSTOK CORRADO 0:14:27 41.52 [km/h]
10 8 MALYSHEV EVGENY M 10 M 30-39 3 KALININGRAD, RUSSIA RPM RUS 0:14:32 41.28 [km/h]
11 99 BOJARCZAK MICHAŁ M 11 M 40-49 5 ŁAPY AGR PODLASIE 0:14:33 41.24 [km/h]
12 30 URBAN RAFAŁ M 12 M 40-49 6 DZBENIN KK24H 0:14:42 40.82 [km/h]
13 52 RYNKIEWICZ MARIUSZ M 13 M 40-49 7 ŁYSE KK24H 0:14:44 40.72 [km/h]
14 6 BORUSIŃSKI PAWEŁ M 14 M 50-59 1 WARSZAWA CZAJA TEAM 0:14:48 40.54 [km/h]
15 46 SIENKIEWICZ PATRYK M 15 M 40-49 8 GDYNIA DREAM TRI TEAM 0:14:50 40.45 [km/h]
16 58 GIRAU GABRIEL M 16 M 30-39 4 CIECHANÓW KS JURAND 0:14:52 40.36 [km/h]
17 55 MAŁECKI ŁUKASZ M 17 M 18-29 4 CIECHANÓW SZUKAM KLUBU :) 0:14:52 40.36 [km/h]
18 38 SOCHOŃ WOJCIECH M 18 M 40-49 9 SOCHONIE CORRADO 0:15:04 39.82 [km/h]
19 11 MAREK ANDRZEJ M 19 M 40-49 10 MALBORK KROSS STAFF TEAM / TWISTER TEAM 0:15:09 39.60 [km/h]
20 66 JECHANOWSKI ARKADIUSZ M 20 M 40-49 11 KADZIDŁO KK24H 0:15:11 39.52 [km/h]
21 64 LEMAŃSKI HUBERT M 21 M 15-17 1 GRĄDY 0:15:13 39.43 [km/h]
22 33 MONIUSZKO MARZENA K 1 K 30-39 1 BIAŁYSTOK MILSPORT BLU TEAM 0:15:17 39.26 [km/h]
23 67 KARWOWSKI MACIEJ M 22 M 40-49 12 ŁOMŻA KK24H 0:15:22 39.05 [km/h]
24 17 ALEKSANDROWICZ DARIUSZ M 23 M 40-49 13 OSTROŁĘKA KK24H 0:15:23 39.00 [km/h]
25 4 KAMIŃSKI WIESŁAW M 24 M 50-59 2 NOWOSIEDLINY KK24H 0:15:25 38.92 [km/h]
26 15 ZAWADZKI MARIUSZ M 25 M 30-39 5 CIECHANÓW MAZOVIA PROACTIV 0:15:34 38.54 [km/h]
27 40 REGULSKI DARIUSZ M 26 M 50-59 3 OSTROŁĘKA TARGOR-TRUCK 0:15:40 38.30 [km/h]
28 24 ŚWIERCZ JAN M 27 M 30-39 6 WARSZAWA RETRO STORK TEAM 0:15:45 38.10 [km/h]
29 1 KOWALSKI PIOTR M 28 M 40-49 14 OSTROŁĘKA KK24H 0:15:46 38.05 [km/h]
30 25 PIERZCHALSKI JERZY M 29 M 50-59 4 ŁÓDZ PIERZCHALSKI CYCLING TEAM 0:15:54 37.74 [km/h]
31 62 SZURNICKI ROBERT M 30 M 40-49 15 DRĘŻEWO SZURA TEAM 0:15:57 37.62 [km/h]
32 31 DERĘGOWSKA KATARZYNA K 2 K 30-39 2 WARSZAWA KS OXYGEN URSUS 0:16:00 37.50 [km/h]
33 12 SKÓRA MONIKA K 3 K 30-39 3 WARSZAWA NASZOSIETEAM 0:16:06 37.27 [km/h]
34 13 KARCZEWSKI MAREK M 31 M 50-59 5 CZARNOWIEC KK24H 0:16:08 37.19 [km/h]
35 5 PODESZWA WIESŁAW M 32 M 60-69 1 OSTROŁĘKA KK24H 0:16:08 37.19 [km/h]
36 28 ZIELONKA WOJCIECH M 33 M 50-59 6 PŁOŃSK ZIELONKA TEAM 0:16:21 36.70 [km/h]
37 68 GOLAN RAFAŁ M 34 M 30-39 7 OSTROŁĘKA 0:16:25 36.55 [km/h]
38 53 SZKLARSKI ZDZISŁAW M 35 M 30-39 8 KADZIDŁO KK24H 0:16:30 36.36 [km/h]
39 26 PIERZCHALSKI SEBASTIAN M 36 M 30-39 9 ŁÓDŹ PIERZCHALSKI CYCLING TEAM 0:16:45 35.82 [km/h]
40 56 MOKRZYŚ MATEUSZ M 37 M 30-39 10 WARSZAWA 0:16:54 35.50 [km/h]
41 42 WIŚNIEWSKI KRZYSZTOF M 38 M 40-49 16 OSTROŁĘKA AMATOR_SPORTU 0:16:56 35.43 [km/h]
42 44 BUKOWSKI MICHAŁ M 39 M 40-49 17 OSTROŁĘKA BIEGAM BO LUBIĘ OSTROŁĘKA 0:16:58 35.36 [km/h]
43 18 WOŁOSZ WOJCIECH M 40 M 30-39 11 OSTROŁĘKA KK24H 0:17:01 35.26 [km/h]
44 43 MAKOWIECKI JAROSŁAW M 41 M 50-59 7 OLSZEWKA KK24H 0:17:07 35.05 [km/h]
45 59 MARCINIAK DAMIAN M 42 M 30-39 12 OSTROŁĘKA KK24H 0:17:20 34.62 [km/h]
46 49 BĘDŹKOWSKI MAREK M 43 M 50-59 8 OSTROŁĘKA BIEGAM BO LUBIĘ OSTROŁĘKA/MORSY OSTROŁĘKA 0:17:23 34.52 [km/h]
47 61 SZURNICKA GOSIA K 4 K 40-49 1 DRĘŻEWO SZURA TEAM 0:17:26 34.42 [km/h]
48 19 NOSEK WOJCIECH M 44 M 40-49 18 OSTROŁĘKA XTREMESPORT 0:17:34 34.16 [km/h]
49 45 LENDO TOMASZ M 45 M 40-49 19 OSTROŁĘKA 0:17:35 34.12 [km/h]
50 108 GWARDIAK TOMASZ M 46 M 30-39 13 SREBRNY BOREK 0:17:39 33.99 [km/h]
51 35 SRZYWACZ MICHAŁ M 47 M 15-17 2 SOKOŁÓW PODLASKI OSIR 0:17:41 33.93 [km/h]
52 34 SOBOTKA MATEUSZ M 48 M 15-17 3 SOKOŁÓW PODLASKI OSIR 0:17:50 33.64 [km/h]
53 48 ŁAPUĆ EDMUND M 49 M 70+ 1 BIAŁYSTOK GRUPA SZALONYCH ROWERZYSTÓW 0:18:06 33.15 [km/h]
54 69 MOSZCZYŃSKI MICHAŁ M 50 M 18-29 5 OSTROŁĘKA DECATHLON OSTROŁĘKA 0:18:14 32.91 [km/h]
55 37 STEĆ ELIZA K 5 K 18-29 1 SOKOŁÓW PODLASKI OSIR 0:18:15 32.88 [km/h]
56 2 SOBCZYŃSKI FRANCISZEK M 51 M 60-69 2 NOWY DWÓR GDAŃSKI NIEZRZESZONY 0:18:16 32.85 [km/h]
57 65 SENDER JAROSŁAW M 52 M 40-49 20 OSTROŁĘKA SAMORZĄD 0:18:18 32.79 [km/h]
58 50 KLECZKOWSKI LESZEK M 53 M 50-59 9 OSTROŁĘKA KK24H 0:18:20 32.73 [km/h]
59 27 WOJNAR BARBARA K 6 K 30-39 4 KRUKI BBL OSTROŁĘKA 0:18:20 32.73 [km/h]
60 47 SIENKIEWICZ WIKTOR M 54 M 40-49 21 GDYNIA 0:18:20 32.73 [km/h]
61 103 DOBKOWSKI KAZIMIERZ M 55 M 50-59 10 ZAWADY KOLONIA 38 NIEZRZESZONY 0:18:22 32.67 [km/h]
62 60 DĄBKOWSKA WIOLETA K 7 K 30-39 5 OLSZEWO-BORKI SZURA TEAM 0:18:29 32.46 [km/h]
63 105 NOSEK SZYMON M 56 M 0-14 1 OSTROŁĘKA XTREMESPORT 0:18:49 31.89 [km/h]
64 41 BEDNARCZYK BOŻENA K 8 K 18-29 2 GRĘBKI BIKEHOLIC TEAM 0:18:57 31.66 [km/h]
65 63 ZAURSKI MARCIN M 57 M 70+ 2 OSTROŁĘKA 0:18:57 31.66 [km/h]
66 22 GWARDIAK JAKUB M 58 M 15-17 4 SREBRNY BOREK 0:19:08 31.36 [km/h]
67 7 JARZĄBEK WOJCIECH M 59 M 50-59 11 OSTROŁĘKA BIEGAM BO LUBIĘ OSTROŁĘKA 0:19:17 31.11 [km/h]
68 14 ZAWADZKA MAŁGORZATA K 9 K 40-49 2 CIECHANÓW MAZOVIA PROACTIV 0:19:18 31.09 [km/h]
69 109 WOJNAR DARIUSZ M 60 M 40-49 22 KRUKI BBL OSTROŁĘKA 0:19:38 30.56 [km/h]
70 51 MODZELEWSKI KRZYSZTOF M 61 M 50-59 12 OSTROŁĘKA STARGLASS TEAM 0:19:49 30.28 [km/h]
71 112 MIODUSZEWSKA-SIENKIEWICZ MARTA K 10 K 40-49 3 GDYNIA DREAM TRI TEAM 0:19:50 30.25 [km/h]
72 57 ŁUSZCZYŃSKA SYLWIA K 11 K 18-29 3 RADOMSKO KOLARSKO-BIEGOWY KS 0:20:04 29.90 [km/h]
73 16 EJZEMBERG VICTORIA K 12 K 18-29 4 ŁODZISKA XTREMESPORT 0:20:18 29.56 [km/h]
74 70 GRABOWSKI JERZY M 62 M 60-69 3 OSTROŁĘKA RADA MIASTA OSTROŁĘKI 0:20:46 28.89 [km/h]
75 3 KAMIŃSKA MARIA K 13 K 50-59 1 NOWOSIEDLINY KK24H 0:20:50 28.80 [km/h]
76 110 DOBRZYŃSKI ADAM M 63 M 30-39 14 OSTROŁĘKA RETRO STORK TEAM 0:21:02 28.53 [km/h]
77 116 BRODACKI MICHAŁ M 64 M 15-17 5 OSTROŁĘKA BIEGAM BO LUBIĘ OSTROŁĘKA 0:21:02 28.53 [km/h]
78 36 DĄBROWSKI MICHAŁ M 65 M 0-14 2 SOKOŁÓW PODLASKI OSIR 0:21:11 28.32 [km/h]
79 113 LENDO NATAN M 66 M 0-14 3 OSTROŁĘKA 0:22:17 26.93 [km/h]
80 111 BEDNARCZYK MIŁOSZ M 67 M 0-14 4 OSTRÓW MAZOWIECKI RETRO STORK TEAM 0:22:46 26.35 [km/h]
81 119 NOSEK JOLA K 14 K 40-49 4 OSTROŁĘKA XTREMESPORT 0:23:21 25.70 [km/h]
82 104 EJZEMBERG SARA K 15 K 0-14 1 ŁODZISKA XTREMESPORT 0:23:40 25.35 [km/h]
83 101 DOBRZYŃSKI JAKUB M 68 M 0-14 5 OSTROŁĘKA 0:23:46 25.25 [km/h]
84 114 SIENKIEWICZ OLIWIA K 16 K 0-14 2 GDYNIA DREAM TRI TEAM 0:26:30 22.64 [km/h]
85 106 NOSEK OLGA K 17 K 0-14 3 OSTROŁĘKA XTREMESPORT 0:27:35 21.75 [km/h]
86 107 KACZMARCZYK MAJA K 18 K 0-14 4 PRZYSTAŃ 0:27:44 21.63 [km/h]
87 120 DMOCHOWSKI NIKODEM M 69 M 0-14 6 OSTROŁĘKA 0:28:56 20.74 [km/h]
88 117 PRUSIŃSKI PIOTR M 70 M 0-14 7 OSTROŁĘKA MKKK 0:29:32 20.32 [km/h]
89 102 DOBRZYŃSKI GRZEGORZ M 71 M 0-14 8 OSTROŁĘKA 0:30:37 19.60 [km/h]
90 115 DOBKOWSKI ALAN M 72 M 0-14 9 OSTROŁĘKA 0:33:43 17.80 [km/h]
91 118 MARCINIAK SANDRA K 19 K 0-14 5 OSTROŁĘKA 0:38:41 15.51 [km/h]
- 32 SZADURA MICHAŁ M - M 30-39 - WARSZAWA SZYBKIE KOPYTO ULTRA DNF - [km/h]

Komunikat. Wykorzystujemy pliki cookies, aby nasz serwis lepiej spełniał Państwa oczekiwania. Można zablokować zapisywanie cookies, zmieniając ustawienia przeglądarki. [x] __ZAMKNIJ